Time;durP1;ratioP1;P1;durP2;ratioP2;P2;SDS_P1;SDS_P2;PMS_P1;PMS_P2;Temp;Humidity;BMP_temperature;BMP_pressure;BME280_temperature;BME280_humidity;BME280_pressure;Samples;Min_cycle;Max_cycle;Signal;HPM_P1;HPM_P2
2021/08/21 00:00:06;;;;;;;9.30;7.88;;;17.70;91.90;;;;;;2610224;54;20038;-74
2021/08/21 00:02:37;;;;;;;9.57;7.55;;;17.70;91.90;;;;;;2609413;54;20038;-74
2021/08/21 00:05:07;;;;;;;9.55;8.13;;;17.70;91.80;;;;;;2609364;54;20027;-74
2021/08/21 00:07:33;;;;;;;8.43;7.50;;;17.70;91.80;;;;;;2609236;54;20062;-73
2021/08/21 00:09:59;;;;;;;9.70;7.53;;;17.70;91.80;;;;;;2609491;39;20842;-74
2021/08/21 00:12:25;;;;;;;9.55;7.40;;;17.60;91.90;;;;;;2609369;54;20040;-73
2021/08/21 00:14:52;;;;;;;8.32;7.43;;;17.70;91.80;;;;;;2609569;54;20034;-73
2021/08/21 00:17:19;;;;;;;9.32;7.97;;;17.70;91.80;;;;;;2609208;54;20063;-74
2021/08/21 00:19:45;;;;;;;8.57;7.15;;;17.60;91.80;;;;;;2609671;54;20030;-73
2021/08/21 00:22:13;;;;;;;9.82;7.63;;;17.60;92.00;;;;;;2608842;54;20038;-74
2021/08/21 00:24:39;;;;;;;12.05;7.90;;;17.70;92.00;;;;;;2609427;54;20023;-74
2021/08/21 00:27:05;;;;;;;10.30;7.80;;;17.70;92.10;;;;;;2609098;54;20038;-73
2021/08/21 00:29:32;;;;;;;10.27;8.48;;;17.70;92.10;;;;;;2608208;47;20042;-74
2021/08/21 00:31:58;;;;;;;9.77;8.10;;;17.70;92.00;;;;;;2608641;47;20074;-73
2021/08/21 00:34:24;;;;;;;13.73;8.55;;;17.70;92.00;;;;;;2609350;39;20879;-73
2021/08/21 00:36:49;;;;;;;8.48;7.57;;;17.70;92.00;;;;;;2609706;54;20038;-74
2021/08/21 00:39:16;;;;;;;10.15;8.50;;;17.70;91.90;;;;;;2610100;54;20022;-73
2021/08/21 00:41:43;;;;;;;11.55;8.48;;;17.70;91.90;;;;;;2607562;47;20082;-73
2021/08/21 00:44:09;;;;;;;8.70;7.68;;;17.70;92.20;;;;;;2609784;54;20065;-74
2021/08/21 00:47:12;;;;;;;9.43;8.38;;;17.70;92.00;;;;;;2608502;47;20031;-74
2021/08/21 00:49:41;;;;;;;7.95;7.07;;;17.70;91.80;;;;;;2608903;47;20073;-73
2021/08/21 00:52:11;;;;;;;8.73;7.30;;;17.70;91.80;;;;;;2609261;54;20027;-73
2021/08/21 00:54:39;;;;;;;8.68;7.55;;;17.70;91.80;;;;;;2609341;54;20065;-74
2021/08/21 00:57:05;;;;;;;8.55;7.38;;;17.70;91.90;;;;;;2608580;51;20037;-73
2021/08/21 00:59:36;;;;;;;12.48;7.50;;;17.70;91.80;;;;;;2608922;54;20045;-73
2021/08/21 01:02:06;;;;;;;8.57;7.18;;;17.70;91.90;;;;;;2608611;47;20038;-73
2021/08/21 01:04:42;;;;;;;9.38;7.35;;;17.70;91.80;;;;;;2608670;54;20051;-73
2021/08/21 01:07:12;;;;;;;8.73;6.63;;;17.70;91.80;;;;;;2609380;50;21051;-74
2021/08/21 01:09:40;;;;;;;9.40;7.57;;;17.70;91.90;;;;;;2610067;54;20034;-73
2021/08/21 01:12:10;;;;;;;8.20;7.22;;;17.70;91.80;;;;;;2609848;54;20061;-73
2021/08/21 01:14:36;;;;;;;8.40;7.35;;;17.70;91.90;;;;;;2610237;54;20030;-74
2021/08/21 01:17:02;;;;;;;9.48;7.55;;;17.70;91.90;;;;;;2609625;47;20645;-73
2021/08/21 01:19:32;;;;;;;8.73;7.05;;;17.70;91.90;;;;;;2610868;54;20030;-74
2021/08/21 01:21:58;;;;;;;7.55;6.70;;;17.70;91.90;;;;;;2609900;54;20027;-74
2021/08/21 01:24:24;;;;;;;9.38;7.35;;;17.70;92.10;;;;;;2610970;39;20420;-74
2021/08/21 01:26:54;;;;;;;7.78;6.97;;;17.60;91.80;;;;;;2610213;54;20030;-74
2021/08/21 01:29:29;;;;;;;9.05;7.43;;;17.70;91.90;;;;;;2610164;54;20046;-74
2021/08/21 01:32:01;;;;;;;6.55;5.88;;;17.70;91.90;;;;;;2610533;54;20036;-73
2021/08/21 01:34:28;;;;;;;7.25;6.43;;;17.60;91.70;;;;;;2609866;47;20095;-74
2021/08/21 01:36:53;;;;;;;8.50;7.38;;;17.60;92.00;;;;;;2609997;47;20030;-74
2021/08/21 01:39:53;;;;;;;9.68;7.07;;;17.60;91.70;;;;;;2609300;54;20034;-73
2021/08/21 01:42:34;;;;;;;8.48;7.57;;;17.60;91.80;;;;;;2609009;54;20042;-74
2021/08/21 01:44:59;;;;;;;9.32;7.45;;;17.60;91.90;;;;;;2610412;39;20454;-73
2021/08/21 01:47:25;;;;;;;9.02;8.02;;;17.60;91.90;;;;;;2608916;54;20573;-73
2021/08/21 01:50:01;;;;;;;11.38;7.82;;;17.60;92.00;;;;;;2609486;54;20047;-74
2021/08/21 01:52:28;;;;;;;9.32;7.70;;;17.60;91.90;;;;;;2609521;54;20027;-74
2021/08/21 01:54:54;;;;;;;8.75;7.68;;;17.60;91.80;;;;;;2610224;47;20031;-74
2021/08/21 01:57:21;;;;;;;10.27;7.82;;;17.60;91.80;;;;;;2609508;54;20086;-72
2021/08/21 02:00:09;;;;;;;11.40;8.10;;;17.60;91.90;;;;;;2609603;39;20864;-74
2021/08/21 02:02:42;;;;;;;8.75;7.38;;;17.60;91.90;;;;;;2610159;54;20048;-71
2021/08/21 02:05:30;;;;;;;8.05;7.18;;;17.60;91.80;;;;;;2609072;39;20555;-74
2021/08/21 02:07:57;;;;;;;8.80;7.38;;;17.60;91.70;;;;;;2608921;54;20042;-73
2021/08/21 02:10:23;;;;;;;8.88;7.57;;;17.50;91.70;;;;;;2609749;39;20452;-73
2021/08/21 02:12:49;;;;;;;7.15;6.38;;;17.60;91.70;;;;;;2609584;47;20027;-74
2021/08/21 02:15:20;;;;;;;10.20;7.18;;;17.50;91.60;;;;;;2609381;39;20519;-74
2021/08/21 02:17:49;;;;;;;8.40;6.10;;;17.50;91.60;;;;;;2609857;39;20439;-73
2021/08/21 02:20:35;;;;;;;8.38;6.53;;;17.50;91.70;;;;;;2609758;54;20067;-74
2021/08/21 02:23:04;;;;;;;7.63;6.82;;;17.50;91.70;;;;;;2608808;49;20597;-74
2021/08/21 02:25:33;;;;;;;7.93;6.70;;;17.40;91.80;;;;;;2609589;54;20068;-70
2021/08/21 02:28:06;;;;;;;9.57;7.30;;;17.40;91.80;;;;;;2609937;54;20886;-73
2021/08/21 02:30:36;;;;;;;8.00;7.03;;;17.40;91.80;;;;;;2609299;54;20034;-73
2021/08/21 02:33:03;;;;;;;8.45;7.32;;;17.40;91.90;;;;;;2609371;54;20030;-74
2021/08/21 02:35:29;;;;;;;8.57;7.35;;;17.40;91.90;;;;;;2609646;54;20161;-74
2021/08/21 02:37:55;;;;;;;9.45;7.63;;;17.40;91.90;;;;;;2608998;47;20660;-74
2021/08/21 02:40:21;;;;;;;9.82;8.77;;;17.40;91.90;;;;;;2610173;54;20059;-73
2021/08/21 02:42:49;;;;;;;10.63;8.00;;;17.40;91.90;;;;;;2609853;54;20042;-74
2021/08/21 02:45:15;;;;;;;11.32;8.63;;;17.40;91.90;;;;;;2609991;54;20065;-74
2021/08/21 02:47:41;;;;;;;12.52;8.70;;;17.40;91.90;;;;;;2609178;54;20026;-74
2021/08/21 02:50:07;;;;;;;10.70;9.00;;;17.30;91.90;;;;;;2609588;47;20038;-73
2021/08/21 02:52:33;;;;;;;13.20;9.13;;;17.30;91.90;;;;;;2609227;47;20051;-70
2021/08/21 02:54:58;;;;;;;11.40;8.52;;;17.30;91.90;;;;;;2610607;54;20117;-73
2021/08/21 02:57:25;;;;;;;10.65;8.63;;;17.20;91.90;;;;;;2609341;54;20073;-74
2021/08/21 02:59:54;;;;;;;10.43;8.48;;;17.20;92.00;;;;;;2609311;47;20038;-73
2021/08/21 03:02:22;;;;;;;10.27;8.45;;;17.10;92.00;;;;;;2609376;54;20652;-73
2021/08/21 03:04:49;;;;;;;12.48;9.15;;;17.10;91.90;;;;;;2610052;39;20508;-73
2021/08/21 03:07:21;;;;;;;9.75;8.70;;;17.00;92.00;;;;;;2609339;54;20039;-73
2021/08/21 03:09:50;;;;;;;9.88;8.27;;;17.00;92.20;;;;;;2608826;54;20963;-74
2021/08/21 03:12:18;;;;;;;10.48;8.98;;;17.00;92.10;;;;;;2609480;47;20035;-74
2021/08/21 03:14:53;;;;;;;9.50;8.15;;;16.90;92.10;;;;;;2609211;54;20042;-74
2021/08/21 03:17:19;;;;;;;11.07;9.20;;;16.90;92.20;;;;;;2610409;54;20032;-74
2021/08/21 03:19:44;;;;;;;9.90;8.50;;;16.90;92.20;;;;;;2610524;54;20069;-72
2021/08/21 03:22:11;;;;;;;10.40;9.20;;;16.80;92.10;;;;;;2610874;39;20443;-75
2021/08/21 03:24:40;;;;;;;9.85;8.00;;;16.90;92.20;;;;;;2610533;54;20026;-74
2021/08/21 03:27:08;;;;;;;10.20;8.25;;;16.80;92.00;;;;;;2608758;54;20958;-74
2021/08/21 03:29:34;;;;;;;7.72;6.95;;;16.80;91.70;;;;;;2608577;54;20030;-74
2021/08/21 03:32:01;;;;;;;9.63;7.38;;;16.80;91.70;;;;;;2608784;54;20817;-71
2021/08/21 03:34:27;;;;;;;9.70;8.00;;;16.80;91.60;;;;;;2609071;47;20057;-74
2021/08/21 03:36:56;;;;;;;9.63;8.10;;;16.70;91.80;;;;;;2608695;54;20034;-71
2021/08/21 03:39:22;;;;;;;10.10;8.43;;;16.70;92.00;;;;;;2609017;51;20134;-74
2021/08/21 03:41:48;;;;;;;10.23;9.05;;;16.60;92.20;;;;;;2609017;54;20027;-74
2021/08/21 03:44:15;;;;;;;12.70;9.70;;;16.60;92.20;;;;;;2608481;54;20026;-74
2021/08/21 03:46:40;;;;;;;12.95;8.88;;;16.60;92.30;;;;;;2609242;54;20030;-74
2021/08/21 03:49:08;;;;;;;11.90;9.25;;;16.70;92.30;;;;;;2608923;54;20023;-74
2021/08/21 03:51:35;;;;;;;10.10;8.88;;;16.70;92.40;;;;;;2608777;47;20033;-73
2021/08/21 03:54:02;;;;;;;11.35;9.05;;;16.70;92.50;;;;;;2608983;54;20210;-73
2021/08/21 03:56:29;;;;;;;11.95;9.00;;;16.70;92.50;;;;;;2608958;47;20157;-73
2021/08/21 03:59:04;;;;;;;11.45;9.05;;;16.60;92.50;;;;;;2608850;54;20035;-73
2021/08/21 04:01:30;;;;;;;13.48;9.05;;;16.60;92.60;;;;;;2609742;54;20091;-74
2021/08/21 04:04:04;;;;;;;9.68;8.48;;;16.60;92.60;;;;;;2609787;54;20072;-74
2021/08/21 04:06:36;;;;;;;9.63;7.72;;;16.60;92.60;;;;;;2609854;54;20037;-74
2021/08/21 04:09:02;;;;;;;9.63;7.25;;;16.60;92.50;;;;;;2609665;54;20076;-74
2021/08/21 04:11:34;;;;;;;8.10;6.90;;;16.60;92.40;;;;;;2609611;54;20133;-73
2021/08/21 04:14:08;;;;;;;7.03;6.32;;;16.60;92.20;;;;;;2609387;39;20569;-74
2021/08/21 04:16:34;;;;;;;6.72;5.82;;;16.50;92.00;;;;;;2609763;47;20034;-73
2021/08/21 04:19:00;;;;;;;6.60;5.30;;;16.50;91.70;;;;;;2610141;54;20065;-74
2021/08/21 04:21:35;;;;;;;6.13;5.05;;;16.40;91.70;;;;;;2610035;54;20097;-73
2021/08/21 04:24:03;;;;;;;12.75;6.13;;;16.40;91.60;;;;;;2610231;47;20145;-74
2021/08/21 04:26:29;;;;;;;6.82;6.03;;;16.40;91.50;;;;;;2610098;51;20034;-74
2021/08/21 04:28:55;;;;;;;7.35;5.93;;;16.40;91.40;;;;;;2609598;54;20034;-73
2021/08/21 04:31:21;;;;;;;8.48;5.00;;;16.40;91.50;;;;;;2610107;54;20071;-73
2021/08/21 04:33:47;;;;;;;7.18;6.13;;;16.40;91.60;;;;;;2610197;47;20030;-73
2021/08/21 04:36:13;;;;;;;6.75;5.45;;;16.40;91.60;;;;;;2610217;54;20046;-73
2021/08/21 04:38:40;;;;;;;6.60;5.63;;;16.50;91.50;;;;;;2610481;54;20087;-73
2021/08/21 04:41:06;;;;;;;6.40;5.68;;;16.50;91.70;;;;;;2611395;47;20030;-73
2021/08/21 04:43:32;;;;;;;6.82;6.07;;;16.50;91.70;;;;;;2610193;54;20041;-74
2021/08/21 04:45:59;;;;;;;6.40;5.72;;;16.60;91.90;;;;;;2610735;54;20034;-73
2021/08/21 04:48:25;;;;;;;4.60;3.85;;;16.60;91.90;;;;;;2610386;54;20064;-74
2021/08/21 04:50:52;;;;;;;6.40;5.65;;;16.60;91.70;;;;;;2610777;54;20090;-73
2021/08/21 04:53:20;;;;;;;7.55;5.70;;;16.70;91.70;;;;;;2610878;47;20051;-73
2021/08/21 04:55:48;;;;;;;5.80;5.20;;;16.70;91.70;;;;;;2611493;31;20687;-73
2021/08/21 04:58:16;;;;;;;6.95;5.15;;;16.70;91.80;;;;;;2610306;54;20050;-74
2021/08/21 05:00:43;;;;;;;5.60;5.10;;;16.80;91.90;;;;;;2610867;47;20574;-73
2021/08/21 05:03:16;;;;;;;6.18;5.28;;;16.80;91.80;;;;;;2610712;54;20552;-73
2021/08/21 05:05:44;;;;;;;5.13;4.63;;;16.80;91.80;;;;;;2610903;47;20055;-73
2021/08/21 05:08:10;;;;;;;5.72;5.15;;;16.80;91.80;;;;;;2610827;39;20531;-73
2021/08/21 05:10:39;;;;;;;5.93;4.93;;;16.80;91.70;;;;;;2610572;47;20037;-73
2021/08/21 05:13:05;;;;;;;6.90;5.32;;;16.80;91.70;;;;;;2610138;47;20041;-73
2021/08/21 05:15:33;;;;;;;5.95;5.35;;;16.90;91.80;;;;;;2610469;54;20034;-73
2021/08/21 05:18:24;;;;;;;5.00;4.15;;;16.90;91.90;;;;;;2611236;54;20938;-73
2021/08/21 05:20:54;;;;;;;4.65;3.60;;;17.00;91.90;;;;;;2610326;54;20038;-71
2021/08/21 05:23:21;;;;;;;4.45;3.20;;;17.10;91.80;;;;;;2610187;47;20064;-73
2021/08/21 05:25:48;;;;;;;4.13;3.72;;;17.10;91.70;;;;;;2611258;54;20030;-73
2021/08/21 05:28:16;;;;;;;3.80;3.10;;;17.20;91.70;;;;;;2611011;54;20061;-73
2021/08/21 05:30:42;;;;;;;4.95;3.42;;;17.20;91.60;;;;;;2610624;50;20125;-74
2021/08/21 05:33:11;;;;;;;4.20;3.30;;;17.30;91.70;;;;;;2611671;54;20054;-71
2021/08/21 05:35:36;;;;;;;4.93;4.40;;;17.40;91.50;;;;;;2611513;54;20038;-74
2021/08/21 05:38:04;;;;;;;3.92;3.63;;;17.40;91.60;;;;;;2611346;54;20121;-73
2021/08/21 05:40:30;;;;;;;7.97;3.88;;;17.50;91.60;;;;;;2611686;54;20086;-73
2021/08/21 05:42:56;;;;;;;4.97;3.85;;;17.50;91.50;;;;;;2611289;54;20157;-73
2021/08/21 05:45:22;;;;;;;6.28;3.90;;;17.60;91.60;;;;;;2611995;39;20839;-74
2021/08/21 05:47:48;;;;;;;6.20;4.68;;;17.60;91.60;;;;;;2611964;39;20445;-73
2021/08/21 05:50:14;;;;;;;6.97;5.45;;;17.70;91.80;;;;;;2611243;54;20030;-73
2021/08/21 05:52:40;;;;;;;7.18;6.30;;;17.70;91.80;;;;;;2611742;54;20045;-73
2021/08/21 05:55:06;;;;;;;6.75;5.95;;;17.80;91.80;;;;;;2611375;54;20042;-72
2021/08/21 05:57:49;;;;;;;6.82;6.00;;;18.00;91.90;;;;;;2610540;54;20039;-73
2021/08/21 06:00:15;;;;;;;7.03;5.95;;;18.10;91.70;;;;;;2611683;54;20133;-73
2021/08/21 06:02:42;;;;;;;7.47;5.80;;;18.20;91.60;;;;;;2611744;54;20154;-73
2021/08/21 06:05:10;;;;;;;7.15;6.35;;;18.20;91.70;;;;;;2611015;54;20061;-73
2021/08/21 06:07:36;;;;;;;7.35;6.53;;;18.30;91.70;;;;;;2610357;54;20034;-73
2021/08/21 06:10:07;;;;;;;7.95;6.85;;;18.30;91.70;;;;;;2610076;54;20070;-73
2021/08/21 06:12:33;;;;;;;7.90;7.10;;;18.40;91.80;;;;;;2610175;47;20035;-74
2021/08/21 06:14:59;;;;;;;9.68;8.07;;;18.60;91.70;;;;;;2611370;39;20427;-73
2021/08/21 06:17:25;;;;;;;9.80;8.32;;;18.70;91.60;;;;;;2609671;54;20118;-73
2021/08/21 06:19:51;;;;;;;12.70;10.10;;;18.80;91.30;;;;;;2610686;54;20034;-73
2021/08/21 06:22:16;;;;;;;9.77;8.73;;;18.90;90.80;;;;;;2610801;54;20038;-74
2021/08/21 06:24:42;;;;;;;11.60;8.77;;;18.80;90.60;;;;;;2610920;54;20045;-73
2021/08/21 06:27:09;;;;;;;10.82;8.73;;;18.80;90.80;;;;;;2610335;54;20065;-73
2021/08/21 06:29:35;;;;;;;10.32;9.05;;;18.80;91.00;;;;;;2611375;54;20071;-73
2021/08/21 06:32:04;;;;;;;11.60;9.35;;;18.80;91.10;;;;;;2610563;54;20034;-73
2021/08/21 06:34:30;;;;;;;10.95;8.90;;;18.80;91.10;;;;;;2610842;54;20031;-73
2021/08/21 06:36:57;;;;;;;11.85;9.50;;;18.90;91.10;;;;;;2610823;54;20638;-73
2021/08/21 06:39:23;;;;;;;12.10;9.77;;;19.00;91.20;;;;;;2610831;47;20064;-73
2021/08/21 06:41:49;;;;;;;10.98;9.50;;;19.00;91.10;;;;;;2610259;54;20026;-73
2021/08/21 06:44:15;;;;;;;9.75;8.63;;;19.10;90.40;;;;;;2611270;54;20150;-73
2021/08/21 06:46:41;;;;;;;10.52;8.93;;;19.10;89.80;;;;;;2611361;54;20042;-73
2021/08/21 06:49:07;;;;;;;10.02;8.77;;;19.10;89.60;;;;;;2610897;39;20543;-73
2021/08/21 06:51:33;;;;;;;9.13;7.95;;;19.20;89.10;;;;;;2611310;54;20045;-73
2021/08/21 06:53:59;;;;;;;10.73;9.48;;;19.30;89.40;;;;;;2610310;54;20134;-73
2021/08/21 06:56:24;;;;;;;10.30;8.80;;;19.50;89.40;;;;;;2610892;54;20034;-73
2021/08/21 06:58:50;;;;;;;8.98;8.07;;;19.70;88.50;;;;;;2610848;54;20040;-73
2021/08/21 07:01:16;;;;;;;10.68;8.63;;;19.90;88.70;;;;;;2611017;54;20571;-73
2021/08/21 07:03:42;;;;;;;11.15;8.40;;;20.00;87.40;;;;;;2610703;54;20039;-73
2021/08/21 07:06:08;;;;;;;10.63;8.23;;;20.10;86.50;;;;;;2610040;54;20038;-73
2021/08/21 07:08:33;;;;;;;10.45;9.23;;;20.20;85.60;;;;;;2610157;54;20037;-73
2021/08/21 07:10:59;;;;;;;10.55;9.20;;;20.40;85.60;;;;;;2611128;39;20526;-73
2021/08/21 07:13:25;;;;;;;12.20;8.63;;;20.40;85.10;;;;;;2611246;54;20157;-73
2021/08/21 07:15:51;;;;;;;12.32;9.00;;;20.50;83.40;;;;;;2610286;54;20125;-74
2021/08/21 07:18:17;;;;;;;9.35;8.20;;;20.60;83.10;;;;;;2610540;54;20038;-73
2021/08/21 07:20:43;;;;;;;10.32;8.07;;;20.60;83.00;;;;;;2611449;54;20037;-74
2021/08/21 07:23:09;;;;;;;12.45;8.15;;;20.70;83.00;;;;;;2611319;54;20034;-73
2021/08/21 07:25:34;;;;;;;9.57;7.82;;;20.70;81.20;;;;;;2610201;54;20034;-73
2021/08/21 07:28:00;;;;;;;8.30;7.25;;;20.80;80.20;;;;;;2610740;54;20086;-73
2021/08/21 07:30:26;;;;;;;8.65;7.75;;;20.80;82.20;;;;;;2610999;54;20038;-73
2021/08/21 07:32:52;;;;;;;8.77;7.85;;;20.80;84.10;;;;;;2610936;54;20160;-73
2021/08/21 07:35:18;;;;;;;11.02;9.25;;;20.80;84.70;;;;;;2611043;54;20063;-73
2021/08/21 07:37:43;;;;;;;9.85;7.82;;;20.80;83.90;;;;;;2610801;54;20034;-73
2021/08/21 07:40:10;;;;;;;8.60;7.63;;;20.80;81.10;;;;;;2611008;54;20042;-73
2021/08/21 07:42:36;;;;;;;9.88;8.38;;;20.80;82.80;;;;;;2611053;54;20034;-73
2021/08/21 07:45:02;;;;;;;8.48;7.20;;;20.70;81.70;;;;;;2610990;54;20059;-70
2021/08/21 07:47:28;;;;;;;6.95;5.57;;;20.70;82.60;;;;;;2609422;54;20044;-71
2021/08/21 07:49:53;;;;;;;9.27;7.13;;;20.80;80.60;;;;;;2609488;54;20034;-70
2021/08/21 07:52:19;;;;;;;7.18;5.97;;;20.90;78.90;;;;;;2609950;54;20141;-70
2021/08/21 07:54:45;;;;;;;8.73;6.50;;;20.80;79.50;;;;;;2609199;54;20593;-71
2021/08/21 07:57:10;;;;;;;8.10;6.30;;;20.90;80.90;;;;;;2609339;54;20039;-71
2021/08/21 07:59:36;;;;;;;11.00;7.47;;;21.00;82.20;;;;;;2609903;54;20063;-70
2021/08/21 08:02:02;;;;;;;12.20;9.20;;;21.20;80.10;;;;;;2609926;54;20153;-70
2021/08/21 08:04:27;;;;;;;10.10;7.70;;;21.20;79.60;;;;;;2609428;54;20034;-70
2021/08/21 08:06:53;;;;;;;10.60;7.00;;;21.30;79.30;;;;;;2609935;54;20042;-70
2021/08/21 08:09:19;;;;;;;10.63;7.38;;;21.50;78.70;;;;;;2609558;54;20060;-70
2021/08/21 08:11:44;;;;;;;9.20;5.85;;;21.50;75.60;;;;;;2609513;54;20026;-71
2021/08/21 08:14:10;;;;;;;8.82;5.80;;;21.40;74.70;;;;;;2611247;54;20941;-71
2021/08/21 08:16:36;;;;;;;7.75;5.35;;;21.10;75.80;;;;;;2609830;54;20933;-70
2021/08/21 08:19:01;;;;;;;8.13;5.78;;;21.00;79.00;;;;;;2610234;54;20067;-70
2021/08/21 08:21:27;;;;;;;8.40;6.18;;;21.00;80.90;;;;;;2610888;54;20591;-70
2021/08/21 08:23:54;;;;;;;9.30;6.90;;;21.00;81.40;;;;;;2610776;47;20054;-70
2021/08/21 08:26:20;;;;;;;9.18;6.90;;;21.00;80.10;;;;;;2611127;54;20126;-70
2021/08/21 08:28:46;;;;;;;6.97;5.85;;;21.10;80.10;;;;;;2610786;54;20030;-74
2021/08/21 08:31:11;;;;;;;8.32;6.30;;;21.20;78.50;;;;;;2610423;54;20042;-70
2021/08/21 08:33:37;;;;;;;5.57;5.03;;;21.30;76.40;;;;;;2610555;54;20038;-70
2021/08/21 08:36:03;;;;;;;7.85;5.68;;;21.30;75.80;;;;;;2611075;54;20030;-69
2021/08/21 08:38:29;;;;;;;7.82;5.45;;;21.40;79.00;;;;;;2611017;39;20515;-69
2021/08/21 08:40:54;;;;;;;8.25;6.13;;;21.40;79.40;;;;;;2609790;54;20078;-70
2021/08/21 08:43:22;;;;;;;6.55;5.75;;;21.50;76.60;;;;;;2610548;54;20034;-70
2021/08/21 08:45:49;;;;;;;7.25;6.18;;;21.60;75.30;;;;;;2610905;54;20833;-69
2021/08/21 08:48:15;;;;;;;9.50;6.30;;;21.60;74.00;;;;;;2609943;54;20073;-69
2021/08/21 08:50:42;;;;;;;7.75;5.85;;;21.50;75.40;;;;;;2610703;54;20038;-70
2021/08/21 08:53:08;;;;;;;8.20;6.00;;;21.60;75.70;;;;;;2610497;54;20031;-70
2021/08/21 08:55:33;;;;;;;7.70;6.10;;;21.70;75.20;;;;;;2610131;54;20034;-71
2021/08/21 08:57:59;;;;;;;12.35;8.73;;;21.90;76.20;;;;;;2609889;54;20030;-71
2021/08/21 09:00:28;;;;;;;11.13;8.57;;;22.00;74.60;;;;;;2611227;39;20752;-71
2021/08/21 09:02:56;;;;;;;10.45;7.00;;;22.10;73.70;;;;;;2610559;54;20034;-71
2021/08/21 09:05:24;;;;;;;8.82;5.88;;;22.20;73.20;;;;;;2610493;54;20034;-70
2021/08/21 09:07:52;;;;;;;7.40;5.70;;;22.40;73.10;;;;;;2610591;54;20103;-71
2021/08/21 09:10:45;;;;;;;6.13;4.78;;;22.40;74.00;;;;;;2610598;54;20038;-71
2021/08/21 09:13:15;;;;;;;5.38;4.43;;;22.60;74.30;;;;;;2610583;54;20026;-71
2021/08/21 09:16:01;;;;;;;4.75;4.22;;;22.70;74.10;;;;;;2610651;54;20088;-74
2021/08/21 09:18:29;;;;;;;6.40;4.45;;;22.80;71.00;;;;;;2610350;54;20038;-72
2021/08/21 09:21:03;;;;;;;5.20;4.20;;;22.90;73.70;;;;;;2610978;54;20022;-73
2021/08/21 09:23:35;;;;;;;5.72;4.10;;;23.00;70.30;;;;;;2611163;54;20302;-71
2021/08/21 09:26:13;;;;;;;4.22;3.65;;;23.10;68.70;;;;;;2610628;54;20073;-72
2021/08/21 09:28:41;;;;;;;4.70;3.50;;;23.20;65.50;;;;;;2610394;54;20572;-72
2021/08/21 09:31:09;;;;;;;6.20;4.03;;;23.10;68.40;;;;;;2610699;54;20063;-72
2021/08/21 09:33:40;;;;;;;5.20;4.47;;;23.20;68.30;;;;;;2610741;54;20066;-73
2021/08/21 09:36:12;;;;;;;5.00;3.35;;;23.30;65.80;;;;;;2609672;54;20035;-72
2021/08/21 09:38:37;;;;;;;5.32;3.63;;;23.40;65.50;;;;;;2609952;39;20172;-72
2021/08/21 09:41:06;;;;;;;5.40;4.60;;;23.50;65.90;;;;;;2609699;54;20038;-72
2021/08/21 09:43:35;;;;;;;5.20;4.07;;;23.70;65.10;;;;;;2610211;54;20059;-73
2021/08/21 09:46:20;;;;;;;5.90;5.30;;;23.80;66.00;;;;;;2609419;54;20026;-72
2021/08/21 09:48:56;;;;;;;7.77;5.73;;;23.90;67.10;;;;;;2609596;54;20649;-73
2021/08/21 09:51:36;;;;;;;8.05;5.18;;;23.90;66.10;;;;;;2610247;54;20035;-73
2021/08/21 09:54:03;;;;;;;6.82;5.07;;;23.80;65.60;;;;;;2609879;54;20038;-72
2021/08/21 09:56:34;;;;;;;6.82;5.40;;;23.70;65.70;;;;;;2609349;46;20038;-72
2021/08/21 09:59:04;;;;;;;6.38;4.95;;;23.60;66.10;;;;;;2609889;54;20031;-73
2021/08/21 10:01:30;;;;;;;7.53;5.28;;;23.50;66.10;;;;;;2609961;54;20046;-72
2021/08/21 10:03:57;;;;;;;8.73;6.28;;;23.50;66.70;;;;;;2610331;54;20137;-72
2021/08/21 10:06:24;;;;;;;8.88;6.18;;;23.40;69.20;;;;;;2610295;54;20153;-72
2021/08/21 10:09:02;;;;;;;7.13;5.32;;;23.30;69.30;;;;;;2609931;54;20059;-73
2021/08/21 10:11:29;;;;;;;5.05;4.50;;;23.20;66.70;;;;;;2610528;54;20026;-73
2021/08/21 10:13:56;;;;;;;5.03;4.53;;;23.20;68.00;;;;;;2609405;54;20077;-72
2021/08/21 10:16:22;;;;;;;6.00;4.35;;;23.20;68.60;;;;;;2610142;54;20031;-72
2021/08/21 10:18:48;;;;;;;8.80;4.60;;;23.30;66.30;;;;;;2610077;54;20920;-73
2021/08/21 10:21:16;;;;;;;5.15;4.18;;;23.40;66.70;;;;;;2610205;54;20040;-73
2021/08/21 10:23:45;;;;;;;5.32;4.00;;;23.40;66.10;;;;;;2610084;54;20034;-73
2021/08/21 10:26:25;;;;;;;5.65;3.67;;;23.60;65.80;;;;;;2609983;54;20038;-72
2021/08/21 10:28:52;;;;;;;6.60;4.07;;;23.60;67.20;;;;;;2610061;54;20054;-72
2021/08/21 10:31:34;;;;;;;6.03;4.80;;;23.60;66.90;;;;;;2610110;54;20030;-73
2021/08/21 10:34:00;;;;;;;4.63;3.75;;;23.70;64.30;;;;;;2610603;54;20042;-73
2021/08/21 10:36:47;;;;;;;5.20;4.10;;;23.70;65.10;;;;;;2610575;54;20071;-74
2021/08/21 10:39:17;;;;;;;5.50;4.28;;;23.80;65.10;;;;;;2610571;54;20037;-74
2021/08/21 10:41:44;;;;;;;5.35;3.95;;;23.70;64.20;;;;;;2610762;54;20041;-74
2021/08/21 10:44:10;;;;;;;4.70;3.33;;;23.60;66.50;;;;;;2610969;54;20030;-73
2021/08/21 10:46:35;;;;;;;5.10;4.03;;;23.50;65.60;;;;;;2610522;54;20121;-73
2021/08/21 10:49:08;;;;;;;4.97;3.72;;;23.40;64.60;;;;;;2609283;54;20118;-72
2021/08/21 10:51:48;;;;;;;5.05;3.47;;;23.30;65.20;;;;;;2610708;54;20023;-73
2021/08/21 10:54:25;;;;;;;4.53;3.10;;;23.20;66.60;;;;;;2610384;54;20054;-73
2021/08/21 10:57:15;;;;;;;7.13;3.88;;;23.30;66.70;;;;;;2610190;54;20058;-73
2021/08/21 10:59:43;;;;;;;4.20;3.80;;;23.40;66.50;;;;;;2610529;54;20026;-73
2021/08/21 11:02:20;;;;;;;6.00;3.75;;;23.50;66.60;;;;;;2610400;54;20039;-72
2021/08/21 11:04:46;;;;;;;5.18;3.58;;;23.60;66.10;;;;;;2610576;54;20030;-73
2021/08/21 11:07:37;;;;;;;5.28;3.83;;;23.70;65.20;;;;;;2610133;54;20160;-73
2021/08/21 11:10:21;;;;;;;4.97;3.60;;;23.90;64.00;;;;;;2610234;54;20030;-73
2021/08/21 11:12:50;;;;;;;6.25;3.95;;;24.00;63.20;;;;;;2610278;54;20101;-73
2021/08/21 11:15:19;;;;;;;8.13;3.65;;;24.00;62.80;;;;;;2609935;54;20023;-73
2021/08/21 11:17:45;;;;;;;5.65;4.30;;;24.00;64.40;;;;;;2609339;54;20031;-73
2021/08/21 11:20:31;;;;;;;4.43;3.35;;;24.10;63.60;;;;;;2609807;54;20018;-73
2021/08/21 11:23:06;;;;;;;5.38;4.00;;;24.20;63.40;;;;;;2609637;54;20069;-73
2021/08/21 11:25:37;;;;;;;6.13;4.50;;;24.30;61.80;;;;;;2609871;54;20056;-73
2021/08/21 11:28:13;;;;;;;5.75;4.03;;;24.50;61.00;;;;;;2609918;54;20298;-72
2021/08/21 11:30:39;;;;;;;6.93;3.60;;;24.60;60.40;;;;;;2609968;54;20041;-73
2021/08/21 11:33:08;;;;;;;6.40;4.15;;;24.70;62.00;;;;;;2610454;54;20645;-73
2021/08/21 11:35:47;;;;;;;3.90;3.30;;;24.90;61.00;;;;;;2610647;54;20026;-71
2021/08/21 11:38:25;;;;;;;6.47;3.70;;;25.00;61.70;;;;;;2609909;54;20646;-73
2021/08/21 11:40:51;;;;;;;10.40;4.05;;;25.20;60.00;;;;;;2610372;54;20613;-71
2021/08/21 11:43:23;;;;;;;5.10;3.05;;;25.20;61.70;;;;;;2609691;47;20035;-71
2021/08/21 11:45:49;;;;;;;4.95;3.05;;;25.30;60.20;;;;;;2609579;54;20030;-71
2021/08/21 11:48:15;;;;;;;4.15;3.30;;;25.30;60.20;;;;;;2609873;54;20062;-71
2021/08/21 11:50:49;;;;;;;4.60;3.30;;;25.30;59.40;;;;;;2610086;54;20035;-71
2021/08/21 11:53:23;;;;;;;4.07;3.53;;;25.20;60.10;;;;;;2610114;39;20523;-71
2021/08/21 11:55:54;;;;;;;5.50;3.90;;;25.20;59.80;;;;;;2610434;54;20031;-71
2021/08/21 11:58:31;;;;;;;4.07;3.20;;;25.10;60.10;;;;;;2609914;54;20177;-69
2021/08/21 12:01:10;;;;;;;5.15;2.95;;;25.10;58.80;;;;;;2609886;54;20038;-70
2021/08/21 12:06:08;;;;;;;3.63;3.08;;;25.00;58.10;;;;;;2609630;54;20030;-72
2021/08/21 12:08:33;;;;;;;3.42;2.67;;;25.00;58.80;;;;;;2609425;54;20042;-71
2021/08/21 12:11:03;;;;;;;4.63;2.83;;;25.00;59.50;;;;;;2609938;54;20048;-71
2021/08/21 12:13:34;;;;;;;5.00;3.05;;;25.10;59.60;;;;;;2609957;54;20656;-71
2021/08/21 12:16:11;;;;;;;3.60;2.45;;;25.10;60.50;;;;;;2609795;54;20042;-71
2021/08/21 12:18:40;;;;;;;7.70;3.08;;;25.00;59.50;;;;;;2609439;54;20138;-72
2021/08/21 12:21:08;;;;;;;4.07;2.60;;;24.90;58.50;;;;;;2608146;54;20079;-71
2021/08/21 12:23:37;;;;;;;3.50;2.40;;;24.90;59.40;;;;;;2609767;54;20031;-71
2021/08/21 12:26:04;;;;;;;3.00;2.65;;;24.80;59.80;;;;;;2610055;54;20035;-71
2021/08/21 12:28:42;;;;;;;5.45;3.13;;;24.70;59.20;;;;;;2609260;54;20069;-71
2021/08/21 12:31:10;;;;;;;5.32;2.70;;;24.70;60.50;;;;;;2609790;54;20145;-71
2021/08/21 12:33:38;;;;;;;5.80;2.90;;;24.70;60.90;;;;;;2609863;54;20038;-71
2021/08/21 12:36:20;;;;;;;3.28;2.97;;;24.80;59.30;;;;;;2608986;54;20149;-71
2021/08/21 12:39:06;;;;;;;3.88;2.92;;;24.90;60.20;;;;;;2609773;54;20042;-71
2021/08/21 12:41:34;;;;;;;7.43;3.63;;;25.10;58.90;;;;;;2610953;54;20039;-69
2021/08/21 12:44:08;;;;;;;3.05;2.63;;;25.00;57.90;;;;;;2609784;47;20847;-71
2021/08/21 12:46:36;;;;;;;4.78;2.58;;;25.00;58.90;;;;;;2611059;54;20027;-71
2021/08/21 12:49:09;;;;;;;4.00;2.30;;;25.10;59.10;;;;;;2609585;54;20042;-72
2021/08/21 12:51:40;;;;;;;3.63;2.53;;;25.10;57.70;;;;;;2609543;54;20050;-72
2021/08/21 12:54:09;;;;;;;2.50;2.30;;;25.30;58.80;;;;;;2609893;54;20042;-71
2021/08/21 12:56:34;;;;;;;3.58;2.72;;;25.30;59.90;;;;;;2610126;54;20593;-71